Hinkle, KY (40953)

7:11 AM EDT on July 23, 2014 (GMT -0400)
liford's (KKYBARBO2) Elev 1066 ft | 36.84 °N, 83.85 °W | Change Station

Current weather conditions updated 13 minutes ago

Overcast
Overcast
69.4 °F
Feels Like 69.4 °F
N
0.0
Wind Variable Wind from NNW

Today is forecast to be Cooler than yesterday. Afternoon thunderstorms.

Today
High -- | Low -- °F
--% Chance of Precip.
Yesterday
High -- | Low -- °F
Precip. -- in
6:33 AM 8:49 PM
Waning Crescent, 11% visible
Pressure 30.13 in
Visibility 0.2 miles
Clouds Overcast 200 ft
Dew Point 69 °F
Humidity 99%
Rainfall 0.00 in
Snow Depth Not available.
UV 0 out of 12
Pollen 3.40 out of 12
Air Quality Not available.
Flu Activity Not available.
METAR K1A6 231055Z AUTO 00000KT 1/4SM FG OVC002 20/20 A3013 RMK AO2 T01980198

More Conditions Fewer Conditions

Pressure 30.13 in
Visibility 0.2 miles
Clouds Overcast 200 ft
Dew Point 69 °F
Humidity 99%
Rainfall 0.00 in
Snow Depth Not available.
UV 0 out of 12
Pollen 3.40 out of 12
Air Quality Not available.
Flu Activity Not available.
METAR K1A6 231055Z AUTO 00000KT 1/4SM FG OVC002 20/20 A3013 RMK AO2 T01980198

More Conditions Fewer Conditions

10-Day Weather Forecast

Almanac

Astronomy

Jul. 23, 2014 Rise Set
Actual Time 6:33 AM EDT 8:49 PM EDT
Civil Twilight 6:04 AM EDT 9:18 PM EDT
Nautical Twilight 5:28 AM EDT 9:54 PM EDT
Astronomical Twilight 4:48 AM EDT 10:33 PM EDT
Moon 3:51 AM EDT 6:17 PM EDT
Length of Visible Light 15h 14m
Length of Day
14h 15m
Tomorrow will be 1m 30s shorter.
Waning Crescent, 11% of the Moon is Illuminated
Today
Waning Crescent
Jul 26
New
Aug 3
First Quarter
Aug 10
Full
Aug 17
Last Quarter

Today's Extremes

State Highs State Lows

Community

WunderPhotos

Upload Photos

1,736,560 photos uploaded!

Nearby

Snow Depth

Station Depth Elevation
No new snow has been reported.

Earthquake Activity

City Distance Mag. Time & Date
No recent earthquake activity has been reported nearby.
Minimum magnitude displayed is 2.5.

Coastal Water Temperatures

Place Temperature
No Stations Reporting

Nearby Weather Stations

Station Location Temp. Dew Point Humidity Wind Precip. Elev Updated Type
liford's, Barbourville, KY 69.4 °F 69 °F 99% NNW  at  0.0 mph - / hr 1066 ft 6:57 AM EDT Normal
Mackey Bend, Barbourville, KY 68.7 °F 68 °F 99% ESE  at  0.0 mph 0.00 in / hr 1020 ft 7:11 AM EDT Rapid Fire
Colmar, Middlesboro, KY 69.2 °F 68 °F 97% SSE  at  0.0 mph - / hr 1135 ft 6:57 AM EDT Normal
RAWS YELLOW CREEK KY, Middlesboro, KY 68 °F 68 °F 99% North  at  0 mph 0.00 in / hr 1089 ft 6:26 AM EDT MADIS
RAWS PEABODY KY, Big Creek, KY 68 °F 68 °F 99% North  at  0 mph 0.00 in / hr 1464 ft 6:01 AM EDT MADIS
MSWO, London, KY 70.0 °F 69 °F 98% WSW  at  0.0 mph 0.00 in / hr 1163 ft 7:11 AM EDT Rapid Fire

Show More Stations Show Fewer Stations